createdAt,value
2022-08-11T00:00:16.975Z,0.121800005
2022-08-11T00:01:17.656Z,0.056840003
2022-08-11T00:02:15.450Z,0.121800005
2022-08-11T00:03:15.272Z,0.040600002
2022-08-11T00:04:13.017Z,0.097440004
2022-08-11T00:05:16.303Z,0.129920006
2022-08-11T00:06:10.503Z,0.105560005
2022-08-11T00:07:14.070Z,0.105560005
2022-08-11T00:08:09.282Z,0.113680005
2022-08-11T00:10:15.717Z,0.121800005
2022-08-11T00:11:13.674Z,0.138040006
2022-08-11T00:12:17.165Z,0.073080003
2022-08-11T00:13:11.731Z,0.081200004
2022-08-11T00:13:16.995Z,0.081200004
2022-08-11T00:15:12.951Z,0.154280007
2022-08-11T00:16:13.491Z,0.073080003
2022-08-11T00:17:10.210Z,0.121800005
2022-08-11T00:18:14.066Z,0.073080003
2022-08-11T00:20:20.783Z,0.089320004
2022-08-11T00:21:54.677Z,0.089320004
2022-08-11T00:22:01.862Z,0.089320004
2022-08-11T00:22:02.003Z,0.089320004
2022-08-11T00:22:24.178Z,0.073080003
2022-08-11T00:24:24.426Z,0.121800005
2022-08-11T00:25:21.089Z,0.113680005
2022-08-11T00:26:24.562Z,0.024360001
2022-08-11T00:27:18.690Z,0.064960003
2022-08-11T00:28:22.855Z,0.081200004
2022-08-11T00:30:16.548Z,0.056840003
2022-08-11T00:31:18.232Z,0.040600002
2022-08-11T00:32:11.132Z,0.097440004
2022-08-11T00:33:14.145Z,0.097440004
2022-08-11T00:34:08.331Z,0.081200004
2022-08-11T00:35:50.942Z,0.105560005
2022-08-11T00:35:55.547Z,0.105560005
2022-08-11T00:36:08.926Z,0.073080003
2022-08-11T00:37:04.701Z,0.073080003
2022-08-11T00:38:11.349Z,0.081200004
2022-08-11T00:39:13.103Z,0.064960003
2022-08-11T00:40:17.254Z,0.089320004
2022-08-11T00:41:14.059Z,0.146160007
2022-08-11T00:42:21.227Z,0.073080003
2022-08-11T00:43:20.271Z,0.138040006
2022-08-11T00:44:19.516Z,0.113680005
2022-08-11T00:45:18.672Z,0.097440004
2022-08-11T00:46:19.252Z,0.089320004
2022-08-11T00:47:25.124Z,0.073080003
2022-08-11T00:48:25.782Z,0.056840003
2022-08-11T00:50:36.358Z,0.073080003
2022-08-11T00:52:04.743Z,0.073080003
2022-08-11T00:52:05.804Z,0.073080003
2022-08-11T00:52:36.934Z,0.113680005
2022-08-11T00:53:39.225Z,0.113680005
2022-08-11T00:54:37.643Z,0.170520008
2022-08-11T00:55:39.242Z,0.129920006
2022-08-11T00:56:38.218Z,0.121800005
2022-08-11T00:57:40.603Z,0.113680005
2022-08-11T00:59:36.073Z,0.138040006
2022-08-11T01:00:29.653Z,0.146160007
2022-08-11T01:01:34.151Z,0.105560005
2022-08-11T01:02:32.265Z,0.064960003
2022-08-11T01:04:30.761Z,0.113680005
2022-08-11T01:05:35.245Z,0.146160007
2022-08-11T01:06:30.756Z,0.105560005
2022-08-11T01:08:01.723Z,0.097440004
2022-08-11T01:08:02.129Z,0.097440004
2022-08-11T01:08:02.875Z,0.097440004
2022-08-11T01:08:28.018Z,0.105560005
2022-08-11T01:14:05.806Z,-0.064960003
2022-08-11T01:17:47.882Z,4.00316
2022-08-11T01:26:18.866Z,0.048720002
2022-08-11T01:27:04.989Z,2.23300004
2022-08-11T01:27:19.241Z,2.23300004
2022-08-11T01:27:19.516Z,2.23300004
2022-08-11T01:28:05.833Z,0.105560005
2022-08-11T01:30:09.247Z,0.032480001
2022-08-11T01:31:04.065Z,0.097440004
2022-08-11T01:32:01.836Z,0.073080003
2022-08-11T01:32:56.006Z,0.081200004
2022-08-11T01:33:53.638Z,0.073080003
2022-08-11T01:34:46.133Z,0.081200004
2022-08-11T01:35:44.671Z,0.129920006
2022-08-11T01:36:38.984Z,0.056840003
2022-08-11T01:37:42.376Z,0.081200004
2022-08-11T01:39:39.272Z,0.105560005
2022-08-11T01:40:30.638Z,0.064960003
2022-08-11T01:41:28.389Z,0.073080003
2022-08-11T01:42:21.205Z,0.040600002
2022-08-11T01:43:17.875Z,0.113680005
2022-08-11T01:44:14.997Z,0.097440004
2022-08-11T01:45:10.609Z,0.073080003
2022-08-11T01:46:07.866Z,0.081200004
2022-08-11T01:47:04.718Z,0.129920006
2022-08-11T01:47:56.816Z,0.105560005
2022-08-11T01:48:53.750Z,0.146160007
2022-08-11T01:50:08.143Z,0.105560005
2022-08-11T01:50:08.589Z,0.105560005
2022-08-11T01:52:30.998Z,0.129920006
2022-08-11T01:52:34.993Z,0.129920006
2022-08-11T01:53:27.534Z,0.146160007
2022-08-11T01:55:26.778Z,0.097440004
2022-08-11T01:56:20.966Z,0.081200004
2022-08-11T01:57:26.662Z,0.048720002
2022-08-11T01:58:39.789Z,0.113680005
2022-08-11T01:58:43.514Z,0.113680005
2022-08-11T01:58:43.958Z,0.113680005
2022-08-11T01:59:27.468Z,0.089320004
2022-08-11T02:00:22.832Z,0.097440004
2022-08-11T02:01:21.094Z,0.105560005
2022-08-11T02:02:21.900Z,0.056840003
2022-08-11T02:03:16.024Z,0.121800005
2022-08-11T02:05:14.184Z,0.129920006
2022-08-11T02:06:15.505Z,0.073080003
2022-08-11T02:07:10.312Z,0.105560005
2022-08-11T02:08:12.288Z,0.089320004
2022-08-11T02:10:08.027Z,0.089320004
2022-08-11T02:11:04.690Z,0.089320004
2022-08-11T02:12:05.412Z,0.056840003
2022-08-11T02:13:02.579Z,0.056840003
2022-08-11T02:14:01.394Z,0.129920006
2022-08-11T02:15:05.178Z,0.048720002
2022-08-11T02:15:05.234Z,0.048720002
2022-08-11T02:15:57.263Z,0.089320004
2022-08-11T02:16:53.878Z,0.113680005
2022-08-11T02:17:56.124Z,0.064960003
2022-08-11T02:19:54.173Z,0.121800005
2022-08-11T02:20:49.378Z,0.186760008
2022-08-11T02:21:53.634Z,0.073080003
2022-08-11T02:22:48.372Z,0.032480001
2022-08-11T02:25:17.614Z,0.097440004
2022-08-11T02:26:19.772Z,0.105560005
2022-08-11T02:27:16.687Z,0.081200004
2022-08-11T02:28:12.470Z,0.113680005
2022-08-11T02:29:17.641Z,0.048720002
2022-08-11T02:30:15.519Z,0.146160007
2022-08-11T02:32:14.200Z,0.016240001
2022-08-11T02:32:23.986Z,0.016240001
2022-08-11T02:32:24.342Z,0.016240001
2022-08-11T02:32:28.426Z,0.056840003
2022-08-11T02:32:33.169Z,0.056840003
2022-08-11T02:32:39.481Z,0.056840003
2022-08-11T02:33:24.631Z,0.081200004
2022-08-11T02:34:19.846Z,0.081200004
2022-08-11T02:35:27.556Z,0.073080003
2022-08-11T02:36:20.000Z,0.089320004
2022-08-11T02:37:23.486Z,0.186760008
2022-08-11T02:38:15.412Z,0.154280007
2022-08-11T02:40:11.925Z,0.113680005
2022-08-11T02:41:14.213Z,0.113680005
2022-08-11T02:42:07.191Z,0.121800005
2022-08-11T02:42:35.287Z,0.121800005
2022-08-11T02:42:35.531Z,0.121800005
2022-08-11T02:43:11.089Z,0.073080003
2022-08-11T02:44:05.716Z,0.081200004
2022-08-11T02:45:11.091Z,0.056840003
2022-08-11T02:46:05.406Z,0.073080003
2022-08-11T02:47:09.363Z,0.032480001
2022-08-11T02:48:06.133Z,0.048720002
2022-08-11T02:50:07.879Z,0.089320004
2022-08-11T02:51:10.480Z,0.121800005
2022-08-11T02:52:03.191Z,0.097440004
2022-08-11T02:53:08.968Z,0.073080003
2022-08-11T02:54:01.583Z,0.040600002
2022-08-11T02:55:03.528Z,0.138040006
2022-08-11T02:56:00.206Z,0.016240001
2022-08-11T02:57:02.479Z,0.073080003
2022-08-11T02:57:54.334Z,0.081200004
2022-08-11T02:59:48.621Z,0.097440004
2022-08-11T03:00:47.337Z,0.073080003
2022-08-11T03:01:45.502Z,0.073080003
2022-08-11T03:02:45.082Z,0.064960003
2022-08-11T03:03:41.358Z,0.105560005
2022-08-11T03:05:52.987Z,0.024360001
2022-08-11T03:06:50.364Z,0.073080003
2022-08-11T03:07:51.574Z,0.113680005
2022-08-11T03:09:46.677Z,0.138040006
2022-08-11T03:10:41.299Z,0.097440004
2022-08-11T03:11:42.744Z,0.138040006
2022-08-11T03:12:38.158Z,0.129920006
2022-08-11T03:13:37.429Z,0.073080003
2022-08-11T03:14:32.688Z,0.089320004
2022-08-11T03:15:32.755Z,0.081200004
2022-08-11T03:16:27.497Z,0.138040006
2022-08-11T03:17:27.965Z,0.105560005
2022-08-11T03:18:29.822Z,0.113680005
2022-08-11T03:19:25.749Z,0.056840003
2022-08-11T03:20:33.518Z,0.097440004
2022-08-11T03:20:38.311Z,0.097440004
2022-08-11T03:22:01.510Z,0.048720002
2022-08-11T03:22:01.909Z,0.048720002
2022-08-11T03:22:02.175Z,0.048720002
2022-08-11T03:22:31.605Z,0.178640008
2022-08-11T03:23:27.922Z,0.097440004
2022-08-11T03:24:29.885Z,0.073080003
2022-08-11T03:25:25.184Z,0.040600002
2022-08-11T03:26:26.038Z,0.081200004
2022-08-11T03:27:21.401Z,0.121800005
2022-08-11T03:28:23.199Z,0.040600002
2022-08-11T03:29:24.866Z,0
2022-08-11T03:29:25.417Z,0
2022-08-11T03:30:22.295Z,0.105560005
2022-08-11T03:31:15.637Z,0.129920006
2022-08-11T03:32:17.477Z,0.089320004
2022-08-11T03:33:16.225Z,0.121800005
2022-08-11T03:34:17.626Z,0.105560005
2022-08-11T03:35:21.537Z,0.129920006
2022-08-11T03:36:14.949Z,0.105560005
2022-08-11T03:37:15.971Z,0.073080003
2022-08-11T03:37:18.271Z,0.073080003
2022-08-11T03:38:13.350Z,0.129920006
2022-08-11T03:40:09.314Z,0.064960003
2022-08-11T03:41:05.720Z,0.113680005
2022-08-11T03:41:18.067Z,0.113680005
2022-08-11T03:41:49.405Z,0.113680005
2022-08-11T03:44:43.299Z,0.105560005
2022-08-11T03:45:41.687Z,0.073080003
2022-08-11T03:46:44.723Z,0.081200004
2022-08-11T03:47:52.306Z,0.089320004
2022-08-11T03:47:55.426Z,0.089320004
2022-08-11T03:48:42.911Z,0.097440004
2022-08-11T03:49:41.173Z,0
2022-08-11T03:50:37.829Z,0.056840003
2022-08-11T03:51:45.007Z,0.129920006
2022-08-11T03:51:51.709Z,0.129920006
2022-08-11T03:51:52.105Z,0.129920006
2022-08-11T03:52:43.334Z,0.064960003
2022-08-11T03:53:37.604Z,0.097440004
2022-08-11T03:55:30.938Z,0.064960003
2022-08-11T03:56:30.921Z,0.073080003
2022-08-11T03:57:25.117Z,0.097440004
2022-08-11T03:58:24.548Z,0.081200004
2022-08-11T03:59:21.659Z,0.097440004
2022-08-11T04:00:24.986Z,0.113680005
2022-08-11T04:01:27.228Z,0.146160007
2022-08-11T04:02:28.788Z,0.105560005
2022-08-11T04:03:20.530Z,0.040600002
2022-08-11T04:04:26.127Z,0.097440004
2022-08-11T04:05:20.568Z,0.073080003
2022-08-11T04:06:25.142Z,0.121800005
2022-08-11T04:07:17.911Z,0.105560005
2022-08-11T04:08:21.554Z,0.064960003
2022-08-11T04:10:17.835Z,0.097440004
2022-08-11T04:11:09.705Z,0.024360001
2022-08-11T04:12:19.155Z,0.064960003
2022-08-11T04:12:35.937Z,0.064960003
2022-08-11T04:12:36.591Z,0.064960003
2022-08-11T04:13:17.561Z,0.040600002
2022-08-11T04:15:17.759Z,0.089320004
2022-08-11T04:16:12.580Z,0.105560005
2022-08-11T04:17:10.647Z,0.129920006
2022-08-11T04:18:05.337Z,0.105560005
2022-08-11T04:20:04.278Z,0.121800005
2022-08-11T04:21:06.463Z,0.105560005
2022-08-11T04:22:07.557Z,0.073080003
2022-08-11T04:23:05.717Z,0.048720002
2022-08-11T04:24:34.486Z,0.081200004
2022-08-11T04:24:36.678Z,0.081200004
2022-08-11T04:24:38.746Z,0.081200004
2022-08-11T04:25:07.875Z,0.089320004
2022-08-11T04:26:18.514Z,0.056840003
2022-08-11T04:26:18.595Z,0.056840003
2022-08-11T04:26:18.659Z,0.056840003
2022-08-11T04:27:05.006Z,0.154280007
2022-08-11T04:27:58.777Z,0.154280007
2022-08-11T04:30:03.606Z,0.105560005
2022-08-11T04:30:04.857Z,0.105560005
2022-08-11T04:30:05.098Z,0.105560005
2022-08-11T04:30:52.960Z,0.129920006
2022-08-11T04:31:52.809Z,0.105560005
2022-08-11T04:32:46.027Z,0.162400007
2022-08-11T04:33:47.417Z,0.089320004
2022-08-11T04:34:39.798Z,0.073080003
2022-08-11T04:35:37.694Z,0.178640008
2022-08-11T04:36:37.187Z,0.105560005
2022-08-11T04:39:45.729Z,0.105560005
2022-08-11T04:40:45.286Z,0.154280007
2022-08-11T04:41:53.972Z,0.089320004
2022-08-11T04:42:55.143Z,0.113680005
2022-08-11T04:44:02.872Z,0.267960012
2022-08-11T04:44:05.482Z,0.267960012
2022-08-11T04:44:06.164Z,0.267960012
2022-08-11T04:44:54.358Z,0.211120009
2022-08-11T04:45:49.842Z,0.105560005
2022-08-11T04:46:52.161Z,0.162400007
2022-08-11T04:48:03.550Z,0.113680005
2022-08-11T04:48:03.778Z,0.113680005
2022-08-11T04:48:04.386Z,0.113680005
2022-08-11T04:49:53.281Z,0.22736001
2022-08-11T04:51:00.703Z,0.146160007
2022-08-11T04:51:00.738Z,0.146160007
2022-08-11T04:51:09.582Z,0.146160007
2022-08-11T04:51:51.104Z,0.186760008
2022-08-11T04:52:46.631Z,0.178640008
2022-08-11T04:53:47.211Z,0.105560005
2022-08-11T04:53:52.535Z,0.105560005
2022-08-11T04:55:53.412Z,0.170520008
2022-08-11T04:56:57.696Z,0.089320004
2022-08-11T04:57:54.287Z,0.162400007
2022-08-11T04:58:54.419Z,0.186760008
2022-08-11T04:59:54.477Z,0.105560005
2022-08-11T05:00:56.989Z,0.316680014
2022-08-11T05:01:51.373Z,0.251720011
2022-08-11T05:02:51.731Z,0.129920006
2022-08-11T05:04:50.769Z,0.22736001
2022-08-11T05:05:54.616Z,0.267960012
2022-08-11T05:05:56.595Z,0.267960012
2022-08-11T05:05:56.846Z,0.267960012
2022-08-11T05:06:49.132Z,0.146160007
2022-08-11T05:07:46.355Z,0.235480011
2022-08-11T05:08:46.241Z,0.194880009
2022-08-11T05:09:45.185Z,0.121800005
2022-08-11T05:10:49.687Z,0.235480011
2022-08-11T05:11:43.965Z,0.235480011
2022-08-11T05:12:44.650Z,0.154280007
2022-08-11T05:13:40.770Z,0.146160007
2022-08-11T05:14:42.349Z,0.194880009
2022-08-11T05:15:42.669Z,0.178640008
2022-08-11T05:16:40.832Z,0.308560014
2022-08-11T05:17:38.799Z,0.211120009
2022-08-11T05:19:16.120Z,0.235480011
2022-08-11T05:22:16.649Z,0.251720011
2022-08-11T05:23:16.849Z,0.21924001
2022-08-11T05:25:11.846Z,0.292320013
2022-08-11T05:26:46.598Z,0.203000009
2022-08-11T05:26:47.574Z,0.203000009
2022-08-11T05:26:47.719Z,0.203000009
2022-08-11T05:27:13.605Z,0.300440013
2022-08-11T05:28:11.723Z,0.235480011
2022-08-11T05:29:20.108Z,0.235480011
2022-08-11T05:29:20.705Z,0.235480011
2022-08-11T05:30:15.184Z,0.292320013
2022-08-11T05:31:09.733Z,0.267960012
2022-08-11T05:32:09.530Z,0.414120018
2022-08-11T05:33:04.874Z,0.300440013
2022-08-11T05:35:01.509Z,0.45472002
2022-08-11T05:36:03.277Z,0.381640017
2022-08-11T05:37:17.178Z,0.430360019
2022-08-11T05:37:23.777Z,0.430360019
2022-08-11T05:37:25.658Z,0.430360019
2022-08-11T05:37:57.389Z,0.414120018
2022-08-11T05:38:54.440Z,0.43848002
2022-08-11T05:39:49.211Z,0.292320013
2022-08-11T05:40:51.392Z,0.381640017
2022-08-11T05:41:44.249Z,0.495320022
2022-08-11T05:42:44.755Z,0.211120009
2022-08-11T05:43:39.844Z,0.527800024
2022-08-11T05:44:20.552Z,0.527800024
2022-08-11T05:44:21.204Z,0.527800024
2022-08-11T05:44:41.267Z,0.324800014
2022-08-11T05:46:02.427Z,0.267960012
2022-08-11T05:46:02.551Z,0.267960012
2022-08-11T05:46:03.073Z,0.267960012
2022-08-11T05:46:41.715Z,0.430360019
2022-08-11T05:47:36.884Z,0.44660002
2022-08-11T05:48:38.751Z,0.44660002
2022-08-11T05:49:31.895Z,0.259840012
2022-08-11T05:50:33.988Z,0.470960021
2022-08-11T05:51:30.046Z,0.357280016
2022-08-11T05:52:25.475Z,0.389760017
2022-08-11T05:52:32.037Z,0.389760017
2022-08-11T05:53:25.370Z,0.600880027
2022-08-11T05:55:26.217Z,0.397880018
2022-08-11T05:56:19.081Z,0.535920024
2022-08-11T05:57:39.570Z,0.511560023
2022-08-11T05:57:45.450Z,0.511560023
2022-08-11T05:58:18.778Z,0.45472002
2022-08-11T06:00:14.349Z,0.592760026
2022-08-11T06:01:09.030Z,0.389760017
2022-08-11T06:02:08.562Z,0.495320022
2022-08-11T06:03:03.194Z,0.560280025
2022-08-11T06:04:05.234Z,0.641480029
2022-08-11T06:04:57.971Z,0.511560023
2022-08-11T06:05:57.428Z,0.649600029
2022-08-11T06:06:52.723Z,0.633360028
2022-08-11T06:07:52.193Z,0.730800033
2022-08-11T06:08:47.396Z,0.609000027
2022-08-11T06:09:46.966Z,0.641480029
2022-08-11T06:10:42.353Z,0.633360028
2022-08-11T06:11:44.168Z,0.67396003
2022-08-11T06:12:37.756Z,0.730800033
2022-08-11T06:14:16.631Z,-0.089320004
2022-08-11T06:14:55.841Z,0.982520044
2022-08-11T06:15:53.142Z,0.795760036
2022-08-11T06:16:53.848Z,1.063719988
2022-08-11T06:17:49.864Z,0.860720038
2022-08-11T06:18:49.150Z,0.868840039
2022-08-11T06:19:44.322Z,0.990640044
2022-08-11T06:20:44.252Z,0.90132004
2022-08-11T06:21:40.292Z,1.039360046
2022-08-11T06:22:38.894Z,0.998760045
2022-08-11T06:23:36.204Z,0.876960039
2022-08-11T06:24:33.572Z,0.795760036
2022-08-11T06:25:29.538Z,0.755160034
2022-08-11T06:26:40.676Z,0.933800042
2022-08-11T06:26:49.524Z,0.933800042
2022-08-11T06:27:29.390Z,0.844480038
2022-08-11T06:28:24.494Z,0.795760036
2022-08-11T06:30:19.169Z,0.803880036
2022-08-11T06:31:21.082Z,0.998760045
2022-08-11T06:32:13.713Z,0.836360037
2022-08-11T06:33:14.261Z,0.90132004
2022-08-11T06:35:08.426Z,1.136800051
2022-08-11T06:36:08.528Z,0.803880036
2022-08-11T06:37:03.908Z,1.364160061
2022-08-11T06:38:07.325Z,1.161159992
2022-08-11T06:40:02.519Z,1.063719988
2022-08-11T06:40:55.171Z,1.161159992
2022-08-11T06:41:58.679Z,0.982520044
2022-08-11T06:42:51.511Z,1.177400112
2022-08-11T06:43:56.420Z,1.177400112
2022-08-11T06:45:41.255Z,-0.089320004
2022-08-11T06:46:03.546Z,1.315440059
2022-08-11T06:47:03.831Z,1.144920111
2022-08-11T06:47:59.606Z,1.291079998
2022-08-11T06:48:59.820Z,1.396640062
2022-08-11T06:49:55.193Z,1.429120064
2022-08-11T06:50:55.319Z,1.299200058
2022-08-11T06:51:50.581Z,1.607760072
2022-08-11T06:52:53.623Z,1.453480005
2022-08-11T06:53:56.382Z,1.599640131
2022-08-11T06:54:03.453Z,1.599640131
2022-08-11T06:54:04.191Z,1.599640131
2022-08-11T06:54:48.984Z,1.770160079
2022-08-11T06:55:55.832Z,1.705200076
2022-08-11T06:55:55.910Z,1.705200076
2022-08-11T06:55:56.642Z,1.705200076
2022-08-11T06:56:46.089Z,1.518440008
2022-08-11T06:57:41.730Z,1.843240023
2022-08-11T06:58:42.081Z,2.078720093
2022-08-11T06:59:37.814Z,2.094960213
2022-08-11T07:00:38.380Z,1.835120082
2022-08-11T07:01:33.948Z,2.23300004
2022-08-11T07:02:36.960Z,2.119320154
2022-08-11T07:03:30.508Z,1.745800018
2022-08-11T07:05:27.384Z,2.127439976
2022-08-11T07:06:25.207Z,2.159920216
2022-08-11T07:07:27.908Z,2.314200163
2022-08-11T07:08:33.574Z,2.192399979
2022-08-11T07:08:35.125Z,2.192399979
2022-08-11T07:08:35.352Z,2.192399979
2022-08-11T07:10:18.682Z,2.379160166
2022-08-11T07:11:21.809Z,2.565920115
2022-08-11T07:12:15.355Z,2.70396018
2022-08-11T07:13:38.201Z,2.963800192
2022-08-11T07:13:43.161Z,2.963800192
2022-08-11T07:14:15.461Z,2.801400185
2022-08-11T07:15:11.798Z,2.817640066
2022-08-11T07:16:14.132Z,3.053120136
2022-08-11T07:17:09.380Z,2.793280125
2022-08-11T07:18:09.797Z,2.825760126
2022-08-11T07:19:06.037Z,3.077480078
2022-08-11T07:20:09.428Z,3.045000076
2022-08-11T07:21:03.787Z,3.248000145
2022-08-11T07:22:07.822Z,2.541560173
2022-08-11T07:23:01.589Z,3.239880085
2022-08-11T07:24:05.408Z,3.093720198
2022-08-11T07:25:02.971Z,3.248000145
2022-08-11T07:26:38.486Z,3.759560108
2022-08-11T07:29:04.574Z,-0.081200004
2022-08-11T07:30:29.415Z,3.515960217
2022-08-11T07:31:24.591Z,3.158680201
2022-08-11T07:32:23.145Z,3.207400084
2022-08-11T07:34:05.682Z,3.369800091
2022-08-11T07:34:06.982Z,3.369800091
2022-08-11T07:34:07.401Z,3.369800091
2022-08-11T07:35:12.209Z,3.369800091
2022-08-11T07:36:11.499Z,3.369800091
2022-08-11T07:37:05.933Z,3.751440048
2022-08-11T07:38:07.151Z,3.402280092
2022-08-11T07:38:59.722Z,3.288600206
2022-08-11T07:40:54.185Z,3.702720165
2022-08-11T07:41:52.660Z,3.686480045
2022-08-11T07:42:47.138Z,3.995040178
2022-08-11T07:43:46.483Z,3.418520212
2022-08-11T07:44:40.855Z,3.759560108
2022-08-11T07:45:40.548Z,3.767680168
2022-08-11T07:46:34.983Z,3.694600105
2022-08-11T07:47:37.174Z,4.311720371
2022-08-11T07:48:29.785Z,4.750200272
2022-08-11T07:50:23.659Z,3.580920219
2022-08-11T07:51:25.595Z,4.100600243
2022-08-11T07:52:18.142Z,4.189920425
2022-08-11T07:53:20.324Z,4.368560314
2022-08-11T07:55:15.013Z,4.612160206
2022-08-11T07:56:07.501Z,4.49036026
2022-08-11T07:57:09.634Z,4.352320194
2022-08-11T07:57:56.990Z,4.352320194
2022-08-11T07:57:57.707Z,4.352320194
2022-08-11T07:58:15.974Z,4.774559975
2022-08-11T07:58:16.338Z,4.774559975
2022-08-11T07:59:07.530Z,4.173680305
2022-08-11T07:59:08.542Z,4.173680305
2022-08-11T08:00:56.562Z,4.717720032
2022-08-11T08:01:59.110Z,4.977560043
2022-08-11T08:02:51.646Z,4.03564024
2022-08-11T08:04:24.214Z,-0.081200004
2022-08-11T08:05:04.442Z,4.815160275
2022-08-11T08:06:03.695Z,4.05188036
2022-08-11T08:07:00.611Z,4.50660038
2022-08-11T08:08:00.966Z,3.767680168
2022-08-11T08:08:56.556Z,4.05188036
2022-08-11T08:10:55.063Z,3.986920118
2022-08-11T08:11:50.464Z,3.873240232
2022-08-11T08:12:50.864Z,3.824520111
2022-08-11T08:13:47.012Z,4.230520248
2022-08-11T08:14:47.101Z,3.970680237
2022-08-11T08:15:42.726Z,4.49036026
2022-08-11T08:16:45.773Z,4.108720303
2022-08-11T08:17:39.181Z,4.01128006
2022-08-11T08:18:43.023Z,4.198040009
2022-08-11T08:20:39.638Z,4.076240063
2022-08-11T08:21:33.248Z,4.693360329
2022-08-11T08:22:39.152Z,4.750200272
2022-08-11T08:23:34.650Z,4.384799957
2022-08-11T08:25:31.233Z,4.555320263
2022-08-11T08:26:25.611Z,4.95320034
2022-08-11T08:27:28.318Z,5.359200478
2022-08-11T08:28:21.781Z,4.9613204
2022-08-11T08:29:21.838Z,4.92884016
2022-08-11T08:30:21.058Z,5.099360466
2022-08-11T08:31:17.347Z,5.066880226
2022-08-11T08:32:20.707Z,5.237400055
2022-08-11T08:33:14.467Z,5.050640106
2022-08-11T08:35:11.640Z,5.180560112
2022-08-11T08:37:15.964Z,-0.081200004
2022-08-11T08:37:16.207Z,-0.081200004
2022-08-11T08:37:46.241Z,-0.081200004
2022-08-11T08:37:47.914Z,5.968200207
2022-08-11T08:38:46.192Z,4.677120209
2022-08-11T08:40:43.619Z,4.336080074
2022-08-11T08:41:44.825Z,4.782680035
2022-08-11T08:42:44.991Z,4.336080074
2022-08-11T08:43:47.621Z,4.701480389
2022-08-11T08:43:48.920Z,4.701480389
2022-08-11T08:45:37.994Z,4.985680103
2022-08-11T08:46:38.818Z,4.45788002
2022-08-11T08:47:42.136Z,4.896360397
2022-08-11T08:47:42.974Z,4.896360397
2022-08-11T08:48:36.768Z,4.449760437
2022-08-11T08:49:32.990Z,4.522840023
2022-08-11T08:50:31.463Z,4.4822402
2022-08-11T08:52:01.092Z,4.449760437
2022-08-11T08:52:01.516Z,4.449760437
2022-08-11T08:52:02.527Z,4.449760437
2022-08-11T08:52:39.416Z,4.368560314
2022-08-11T08:52:42.797Z,4.368560314
2022-08-11T08:53:31.034Z,4.766440392
2022-08-11T08:54:27.391Z,4.157440186
2022-08-11T08:55:30.899Z,4.595920086
2022-08-11T08:56:24.479Z,3.613400221
2022-08-11T08:57:25.522Z,4.165560246
2022-08-11T08:58:21.697Z,4.669000149
2022-08-11T09:00:23.064Z,4.336080074
2022-08-11T09:01:20.068Z,4.02752018
2022-08-11T09:02:17.342Z,3.613400221
2022-08-11T09:03:39.406Z,3.532200098
2022-08-11T09:03:41.801Z,3.532200098
2022-08-11T09:04:07.205Z,3.532200098
2022-08-11T09:05:17.100Z,3.134320259
2022-08-11T09:06:13.430Z,2.93132019
2022-08-11T09:07:16.506Z,2.988160133
2022-08-11T09:08:10.981Z,3.045000076
2022-08-11T09:09:34.179Z,-0.089320004
2022-08-11T09:10:14.626Z,3.321080208
2022-08-11T09:11:14.066Z,3.272360086
2022-08-11T09:12:13.570Z,3.231760025
2022-08-11T09:13:09.451Z,3.174920082
2022-08-11T09:14:14.945Z,2.68772006
2022-08-11T09:14:15.373Z,2.68772006
2022-08-11T09:16:05.110Z,3.215520144
2022-08-11T09:17:05.215Z,3.045000076
2022-08-11T09:18:01.368Z,3.126200199
2022-08-11T09:19:01.871Z,3.028760195
2022-08-11T09:20:58.239Z,2.882600069
2022-08-11T09:21:54.289Z,2.785160065
2022-08-11T09:23:41.405Z,2.663360119
2022-08-11T09:23:54.607Z,2.663360119
2022-08-11T09:24:10.100Z,2.720200062
2022-08-11T09:24:11.435Z,2.720200062
2022-08-11T09:24:16.876Z,2.720200062
2022-08-11T09:25:49.478Z,2.379160166
2022-08-11T09:26:50.876Z,2.671480179
2022-08-11T09:27:50.370Z,2.744560242
2022-08-11T09:28:49.926Z,2.46036005
2022-08-11T09:29:43.824Z,2.565920115
2022-08-11T09:30:43.566Z,2.297960043
2022-08-11T09:31:40.449Z,2.395400047
2022-08-11T09:32:42.634Z,2.411640167
2022-08-11T09:33:35.989Z,2.176160097
2022-08-11T09:34:36.697Z,2.371040106
2022-08-11T09:35:32.914Z,2.192399979
2022-08-11T09:36:33.224Z,2.492840052
2022-08-11T09:37:54.372Z,2.549680233
2022-08-11T09:37:54.923Z,2.549680233
2022-08-11T09:37:55.794Z,2.549680233
2022-08-11T09:38:30.283Z,2.48472023
2022-08-11T09:40:34.537Z,2.533440113
2022-08-11T09:41:25.560Z,2.825760126
2022-08-11T09:42:23.571Z,2.809520245
2022-08-11T09:43:22.180Z,2.314200163
2022-08-11T09:45:20.907Z,1.891960144
2022-08-11T09:46:14.134Z,1.851360083
2022-08-11T09:47:17.491Z,2.159920216
2022-08-11T09:48:10.852Z,2.224880219
2022-08-11T09:49:13.566Z,2.054360151
2022-08-11T09:51:05.694Z,2.062479973
2022-08-11T09:52:09.213Z,1.851360083
2022-08-11T09:53:35.778Z,1.924440145
2022-08-11T09:53:37.777Z,1.924440145
2022-08-11T09:54:04.011Z,1.916320086
2022-08-11T09:56:01.216Z,1.948800087
2022-08-11T09:57:02.024Z,2.03000021
2022-08-11T09:57:05.340Z,2.03000021
2022-08-11T09:57:59.156Z,2.143680096
2022-08-11T09:58:54.867Z,2.01376009
2022-08-11T10:00:52.072Z,2.159920216
2022-08-11T10:01:52.424Z,1.721440077
2022-08-11T10:03:56.285Z,1.924440145
2022-08-11T10:04:56.786Z,1.648360014
2022-08-11T10:05:52.417Z,1.908200026
2022-08-11T10:06:54.450Z,2.046240091
2022-08-11T10:07:50.712Z,2.23300004
2022-08-11T10:08:47.591Z,1.55904007
2022-08-11T10:10:45.216Z,1.932560086
2022-08-11T10:11:55.544Z,1.80264008
2022-08-11T10:11:57.713Z,1.80264008
2022-08-11T10:12:45.124Z,2.046240091
2022-08-11T10:14:30.970Z,1.705200076
2022-08-11T10:14:31.646Z,1.705200076
2022-08-11T10:14:33.816Z,1.705200076
2022-08-11T10:14:44.804Z,2.216760159
2022-08-11T10:15:59.708Z,2.427880049
2022-08-11T10:15:59.875Z,2.427880049
2022-08-11T10:16:40.623Z,2.2411201
2022-08-11T10:17:36.824Z,2.094960213
2022-08-11T10:18:40.653Z,2.03000021
2022-08-11T10:19:34.929Z,1.981280088
2022-08-11T10:20:36.120Z,2.346680164
2022-08-11T10:21:31.790Z,2.314200163
2022-08-11T10:22:33.082Z,2.03000021
2022-08-11T10:23:29.429Z,2.078720093
2022-08-11T10:25:24.737Z,2.094960213
2022-08-11T10:26:25.035Z,1.818880081
2022-08-11T10:27:20.526Z,2.265480042
2022-08-11T10:28:33.368Z,2.168040037
2022-08-11T10:28:36.334Z,2.168040037
2022-08-11T10:28:49.702Z,2.168040037
2022-08-11T10:29:20.421Z,2.062479973
2022-08-11T10:31:16.714Z,1.932560086
2022-08-11T10:32:11.984Z,1.469720125